createdAt,value
2018-05-06T00:00:12.585Z,99.90
2018-05-06T00:02:40.017Z,99.90
2018-05-06T00:05:08.225Z,99.90
2018-05-06T00:07:35.662Z,99.90
2018-05-06T00:10:03.103Z,99.90
2018-05-06T00:12:31.315Z,99.90
2018-05-06T00:14:58.797Z,99.90
2018-05-06T00:17:26.227Z,99.90
2018-05-06T00:19:53.672Z,99.90
2018-05-06T00:22:21.108Z,99.90
2018-05-06T00:24:48.548Z,99.90
2018-05-06T00:27:16.751Z,99.90
2018-05-06T00:29:44.191Z,99.90
2018-05-06T00:32:12.393Z,99.90
2018-05-06T00:34:39.834Z,99.90
2018-05-06T00:37:07.444Z,99.90
2018-05-06T00:39:34.906Z,99.90
2018-05-06T00:42:02.341Z,99.90
2018-05-06T00:44:29.784Z,99.90
2018-05-06T00:46:57.244Z,99.90
2018-05-06T00:49:24.832Z,99.90
2018-05-06T00:51:52.282Z,99.90
2018-05-06T00:54:31.469Z,99.90
2018-05-06T00:56:58.909Z,99.90
2018-05-06T00:59:27.213Z,99.90
2018-05-06T01:01:54.644Z,99.90
2018-05-06T01:04:22.092Z,99.90
2018-05-06T01:06:50.314Z,99.90
2018-05-06T01:09:17.780Z,99.90
2018-05-06T01:11:45.261Z,99.90
2018-05-06T01:14:12.702Z,99.90
2018-05-06T01:16:40.912Z,99.90
2018-05-06T01:19:09.121Z,99.90
2018-05-06T01:21:36.605Z,99.90
2018-05-06T01:24:04.038Z,99.90
2018-05-06T01:26:31.494Z,99.90
2018-05-06T01:28:58.930Z,99.90
2018-05-06T01:31:26.368Z,99.90
2018-05-06T01:33:54.577Z,99.90
2018-05-06T01:36:22.026Z,99.90
2018-05-06T01:38:49.457Z,99.90
2018-05-06T01:41:17.765Z,99.90
2018-05-06T01:43:45.201Z,99.90
2018-05-06T01:46:12.637Z,99.90
2018-05-06T01:48:40.850Z,99.90
2018-05-06T01:51:08.280Z,99.90
2018-05-06T01:53:35.720Z,99.90
2018-05-06T01:56:03.945Z,99.90
2018-05-06T01:58:31.384Z,99.90
2018-05-06T02:00:58.824Z,99.90
2018-05-06T02:03:27.021Z,99.90
2018-05-06T02:05:54.470Z,99.90
2018-05-06T02:08:21.902Z,99.90
2018-05-06T02:10:50.119Z,99.90
2018-05-06T02:13:17.548Z,99.90
2018-05-06T02:15:44.988Z,99.90
2018-05-06T02:18:13.193Z,99.90
2018-05-06T02:20:40.632Z,99.90
2018-05-06T02:23:08.070Z,99.90
2018-05-06T02:25:36.272Z,99.90
2018-05-06T02:28:03.719Z,99.90
2018-05-06T02:30:31.151Z,99.90
2018-05-06T02:32:59.353Z,99.90
2018-05-06T02:35:26.790Z,99.90
2018-05-06T02:37:54.987Z,99.90
2018-05-06T02:40:22.436Z,99.90
2018-05-06T02:42:49.881Z,99.90
2018-05-06T02:45:18.082Z,99.90
2018-05-06T02:47:45.520Z,99.90
2018-05-06T02:50:12.951Z,99.90
2018-05-06T02:52:41.155Z,99.90
2018-05-06T02:55:08.586Z,99.90
2018-05-06T02:57:36.798Z,99.90
2018-05-06T03:00:04.245Z,99.90
2018-05-06T03:02:31.693Z,99.90
2018-05-06T03:04:59.121Z,99.90
2018-05-06T03:07:27.329Z,99.90
2018-05-06T03:09:54.764Z,99.90
2018-05-06T03:12:22.970Z,99.90
2018-05-06T03:14:50.412Z,99.90
2018-05-06T03:17:17.860Z,99.90
2018-05-06T03:19:45.296Z,99.90
2018-05-06T03:22:13.503Z,99.90
2018-05-06T03:24:40.981Z,99.90
2018-05-06T03:27:08.408Z,99.90
2018-05-06T03:29:35.855Z,99.90
2018-05-06T03:32:04.788Z,99.90
2018-05-06T03:34:32.240Z,99.90
2018-05-06T03:36:59.673Z,99.90
2018-05-06T03:39:27.112Z,99.90
2018-05-06T03:41:55.314Z,99.90
2018-05-06T03:44:22.757Z,99.90
2018-05-06T03:46:50.192Z,99.90
2018-05-06T03:49:18.400Z,99.90
2018-05-06T03:51:45.831Z,99.90
2018-05-06T03:54:13.280Z,99.90
2018-05-06T03:57:02.076Z,99.90
2018-05-06T03:59:42.337Z,99.90
2018-05-06T04:05:06.904Z,99.90
2018-05-06T04:07:35.111Z,99.90
2018-05-06T04:10:02.553Z,99.90
2018-05-06T04:12:29.991Z,99.90
2018-05-06T04:14:58.195Z,99.90
2018-05-06T04:17:25.640Z,99.90
2018-05-06T04:19:53.075Z,99.90
2018-05-06T04:22:21.281Z,99.90
2018-05-06T04:24:48.724Z,99.90
2018-05-06T04:27:16.159Z,99.90
2018-05-06T04:29:44.370Z,99.90
2018-05-06T04:32:11.812Z,99.90
2018-05-06T04:34:39.263Z,99.90
2018-05-06T04:37:06.689Z,99.90
2018-05-06T04:39:34.129Z,99.90
2018-05-06T04:42:01.568Z,99.90
2018-05-06T04:44:29.001Z,99.90
2018-05-06T04:46:56.431Z,99.90
2018-05-06T04:49:23.888Z,99.90
2018-05-06T04:51:52.096Z,99.90
2018-05-06T04:54:19.529Z,99.90
2018-05-06T04:56:47.132Z,99.90
2018-05-06T04:59:14.576Z,99.90
2018-05-06T05:01:42.005Z,99.90
2018-05-06T05:04:09.456Z,99.90
2018-05-06T05:06:36.897Z,99.90
2018-05-06T05:09:05.108Z,99.90
2018-05-06T05:11:32.540Z,99.90
2018-05-06T05:13:59.984Z,99.90
2018-05-06T05:16:28.212Z,99.90
2018-05-06T05:18:55.649Z,99.90
2018-05-06T05:21:23.089Z,99.90
2018-05-06T05:23:50.530Z,99.90
2018-05-06T05:26:18.739Z,99.90
2018-05-06T05:28:46.217Z,99.90
2018-05-06T05:31:13.622Z,99.90
2018-05-06T05:33:41.059Z,99.90
2018-05-06T05:36:09.281Z,99.90
2018-05-06T05:38:36.713Z,99.90
2018-05-06T05:41:04.161Z,99.90
2018-05-06T05:43:31.600Z,99.90
2018-05-06T05:45:59.809Z,99.90
2018-05-06T05:48:27.241Z,99.90
2018-05-06T05:50:55.453Z,99.90
2018-05-06T05:53:22.892Z,99.90
2018-05-06T05:55:50.332Z,99.90
2018-05-06T05:58:17.763Z,99.90
2018-05-06T06:00:45.209Z,99.90
2018-05-06T06:03:12.649Z,99.90
2018-05-06T06:05:40.084Z,99.90
2018-05-06T06:08:07.524Z,99.90
2018-05-06T06:10:34.960Z,99.90
2018-05-06T06:13:03.161Z,99.90
2018-05-06T06:15:30.627Z,99.90
2018-05-06T06:17:58.797Z,99.90
2018-05-06T06:20:26.244Z,99.90
2018-05-06T06:22:53.672Z,99.90
2018-05-06T06:25:21.896Z,99.90
2018-05-06T06:27:49.358Z,99.90
2018-05-06T06:30:16.792Z,99.90
2018-05-06T06:32:44.229Z,99.90
2018-05-06T06:35:11.684Z,99.40
2018-05-06T06:37:39.891Z,98.90
2018-05-06T06:40:07.323Z,98.90
2018-05-06T06:42:34.758Z,99.90
2018-05-06T06:45:02.962Z,99.90
2018-05-06T06:47:30.392Z,99.90
2018-05-06T06:49:58.588Z,99.90
2018-05-06T06:52:26.033Z,99.80
2018-05-06T06:54:54.241Z,99.50
2018-05-06T06:57:21.686Z,99.50
2018-05-06T06:59:49.111Z,98.70
2018-05-06T07:02:17.317Z,98.90
2018-05-06T07:04:44.764Z,98.80
2018-05-06T07:07:12.196Z,98.40
2018-05-06T07:09:40.400Z,98.10
2018-05-06T07:12:07.836Z,98.10
2018-05-06T07:14:35.269Z,99.10
2018-05-06T07:17:03.481Z,98.60
2018-05-06T07:19:30.915Z,98.50
2018-05-06T07:21:59.117Z,97.60
2018-05-06T07:24:26.548Z,97.60
2018-05-06T07:26:53.988Z,98.30
2018-05-06T07:29:22.188Z,97.80
2018-05-06T07:31:49.624Z,97.80
2018-05-06T07:34:17.839Z,97.60
2018-05-06T07:36:45.265Z,97.60
2018-05-06T07:39:12.698Z,96.80
2018-05-06T07:41:40.142Z,97.90
2018-05-06T07:44:07.569Z,97.60
2018-05-06T07:46:35.784Z,96.20
2018-05-06T07:49:04.016Z,95.70
2018-05-06T07:51:44.368Z,95.70
2018-05-06T07:54:11.800Z,95.90
2018-05-06T07:56:39.336Z,96.30
2018-05-06T07:59:07.532Z,95.90
2018-05-06T08:01:34.971Z,95.60
2018-05-06T08:04:03.173Z,95.60
2018-05-06T08:06:30.604Z,95.50
2018-05-06T08:08:58.808Z,94.90
2018-05-06T08:11:26.245Z,94.90
2018-05-06T08:13:53.689Z,94.30
2018-05-06T08:16:21.912Z,94.90
2018-05-06T08:18:49.329Z,94.80
2018-05-06T08:21:16.773Z,94.20
2018-05-06T08:23:44.196Z,94.30
2018-05-06T08:26:11.628Z,92.90
2018-05-06T08:28:39.064Z,93.20
2018-05-06T08:31:06.505Z,92.90
2018-05-06T08:33:34.721Z,93.50
2018-05-06T08:36:02.157Z,93.50
2018-05-06T08:38:29.601Z,93.20
2018-05-06T08:40:57.039Z,93.30
2018-05-06T08:43:25.248Z,92.70
2018-05-06T08:45:52.752Z,92.70
2018-05-06T08:48:20.880Z,92.40
2018-05-06T08:50:48.312Z,92.30
2018-05-06T08:53:15.761Z,92.00
2018-05-06T08:55:43.986Z,92.70
2018-05-06T08:58:11.421Z,92.60
2018-05-06T09:00:38.856Z,92.80
2018-05-06T09:03:06.305Z,92.00
2018-05-06T09:05:34.509Z,91.90
2018-05-06T09:08:01.941Z,92.00
2018-05-06T09:10:29.390Z,92.30
2018-05-06T09:12:57.588Z,91.00
2018-05-06T09:15:25.037Z,91.00
2018-05-06T09:17:52.468Z,90.10
2018-05-06T09:20:20.685Z,90.20
2018-05-06T09:22:48.116Z,90.20
2018-05-06T09:25:16.326Z,89.90
2018-05-06T09:27:43.752Z,89.80
2018-05-06T09:30:11.201Z,89.50
2018-05-06T09:32:38.627Z,89.40
2018-05-06T09:35:06.064Z,90.30
2018-05-06T09:37:33.505Z,91.00
2018-05-06T09:40:00.941Z,90.90
2018-05-06T09:42:28.367Z,90.10
2018-05-06T09:44:56.588Z,90.40
2018-05-06T09:47:24.021Z,90.30
2018-05-06T09:49:51.459Z,89.90
2018-05-06T09:52:19.662Z,88.90
2018-05-06T09:54:47.111Z,88.90
2018-05-06T09:57:14.532Z,89.80
2018-05-06T09:59:42.736Z,90.20
2018-05-06T10:02:10.167Z,90.20
2018-05-06T10:04:38.368Z,87.80
2018-05-06T10:07:05.803Z,87.70
2018-05-06T10:09:34.050Z,88.30
2018-05-06T10:12:01.469Z,88.30
2018-05-06T10:14:28.900Z,86.50
2018-05-06T10:16:56.336Z,89.80
2018-05-06T10:19:24.532Z,85.10
2018-05-06T10:21:51.967Z,85.00
2018-05-06T10:24:20.169Z,87.70
2018-05-06T10:26:47.601Z,87.60
2018-05-06T10:29:15.796Z,86.80
2018-05-06T10:31:43.233Z,86.70
2018-05-06T10:34:11.428Z,82.80
2018-05-06T10:36:39.649Z,82.70
2018-05-06T10:39:07.076Z,83.40
2018-05-06T10:41:34.515Z,84.60
2018-05-06T10:44:01.949Z,82.20
2018-05-06T10:46:30.155Z,75.30
2018-05-06T10:48:57.592Z,74.40
2018-05-06T10:51:25.020Z,70.00
2018-05-06T10:53:53.216Z,64.10
2018-05-06T10:56:20.657Z,63.00
2018-05-06T10:58:48.872Z,57.10
2018-05-06T11:01:16.312Z,56.90
2018-05-06T11:03:43.741Z,56.60
2018-05-06T11:06:11.948Z,55.30
2018-05-06T11:08:39.381Z,55.20
2018-05-06T11:11:06.836Z,53.60
2018-05-06T11:13:35.041Z,51.20
2018-05-06T11:16:02.541Z,51.20
2018-05-06T11:18:30.679Z,48.80
2018-05-06T11:20:58.112Z,48.80
2018-05-06T11:23:25.549Z,46.90
2018-05-06T11:25:53.748Z,47.00
2018-05-06T11:28:21.192Z,47.00
2018-05-06T11:30:48.626Z,45.80
2018-05-06T11:33:16.076Z,43.30
2018-05-06T11:35:43.500Z,44.20
2018-05-06T11:38:10.992Z,43.40
2018-05-06T11:40:38.422Z,43.40
2018-05-06T11:43:05.861Z,43.80
2018-05-06T11:45:33.296Z,44.30
2018-05-06T11:48:00.732Z,45.50
2018-05-06T11:50:28.924Z,47.30
2018-05-06T11:52:56.364Z,47.10
2018-05-06T11:55:24.560Z,48.10
2018-05-06T11:57:51.997Z,48.10
2018-05-06T12:00:19.428Z,48.00
2018-05-06T12:02:46.869Z,48.60
2018-05-06T12:05:14.292Z,46.30
2018-05-06T12:07:41.728Z,49.00
2018-05-06T12:10:09.156Z,48.40
2018-05-06T12:12:37.368Z,50.20
2018-05-06T12:15:04.805Z,50.10
2018-05-06T12:17:33.012Z,51.40
2018-05-06T12:20:00.444Z,51.30
2018-05-06T12:22:27.872Z,52.30
2018-05-06T12:24:56.075Z,54.40
2018-05-06T12:27:23.957Z,54.40
2018-05-06T12:29:51.385Z,53.80
2018-05-06T12:32:19.575Z,55.10
2018-05-06T12:34:47.010Z,55.00
2018-05-06T12:37:15.209Z,55.40
2018-05-06T12:39:42.654Z,55.40
2018-05-06T12:42:10.849Z,57.20
2018-05-06T12:44:38.297Z,57.10
2018-05-06T12:47:05.733Z,57.20
2018-05-06T12:49:34.015Z,57.90
2018-05-06T12:52:01.368Z,57.80
2018-05-06T12:54:28.877Z,58.00
2018-05-06T12:56:57.010Z,58.50
2018-05-06T12:59:24.440Z,58.50
2018-05-06T13:01:52.636Z,58.50
2018-05-06T13:04:20.073Z,58.50
2018-05-06T13:06:48.273Z,59.10
2018-05-06T13:09:15.708Z,59.00
2018-05-06T13:11:43.150Z,58.60
2018-05-06T13:14:11.351Z,58.30
2018-05-06T13:16:38.785Z,58.20
2018-05-06T13:19:06.984Z,58.30
2018-05-06T13:21:34.420Z,58.30
2018-05-06T13:24:02.640Z,57.40
2018-05-06T13:26:30.061Z,57.30
2018-05-06T13:28:57.500Z,57.60
2018-05-06T13:31:25.705Z,57.80
2018-05-06T13:33:53.132Z,57.80
2018-05-06T13:36:21.353Z,58.80
2018-05-06T13:38:48.794Z,58.80
2018-05-06T13:41:16.233Z,57.20
2018-05-06T13:43:43.667Z,59.30
2018-05-06T13:46:11.872Z,57.80
2018-05-06T13:48:39.304Z,57.80
2018-05-06T13:51:07.532Z,56.50
2018-05-06T13:53:34.973Z,56.50
2018-05-06T13:56:02.408Z,56.50
2018-05-06T13:58:35.651Z,56.40
2018-05-06T14:01:03.088Z,55.50
2018-05-06T14:03:30.519Z,56.20
2018-05-06T14:05:57.960Z,56.70
2018-05-06T14:08:25.391Z,57.70
2018-05-06T14:10:52.844Z,57.40
2018-05-06T14:13:20.363Z,55.70
2018-05-06T14:15:47.771Z,55.00
2018-05-06T14:18:15.153Z,54.70
2018-05-06T14:20:42.593Z,55.40
2018-05-06T14:23:10.028Z,54.80
2018-05-06T14:25:37.468Z,53.10
2018-05-06T14:28:04.903Z,52.00
2018-05-06T14:30:33.119Z,52.10
2018-05-06T14:33:00.551Z,52.10
2018-05-06T14:35:27.992Z,50.90
2018-05-06T14:37:55.420Z,51.60
2018-05-06T14:40:22.861Z,50.60
2018-05-06T14:42:51.064Z,46.80
2018-05-06T14:45:18.497Z,46.80
2018-05-06T14:47:57.723Z,47.10
2018-05-06T14:50:25.919Z,45.60
2018-05-06T14:52:53.350Z,45.60
2018-05-06T14:55:21.550Z,41.80
2018-05-06T14:57:49.008Z,41.60
2018-05-06T15:00:16.441Z,38.40
2018-05-06T15:02:43.882Z,33.50
2018-05-06T15:05:12.099Z,29.90
2018-05-06T15:07:39.540Z,29.90
2018-05-06T15:10:06.976Z,29.30
2018-05-06T15:12:35.184Z,28.10
2018-05-06T15:15:02.613Z,28.00
2018-05-06T15:17:30.055Z,27.10
2018-05-06T15:19:58.372Z,25.90
2018-05-06T15:22:25.804Z,25.90
2018-05-06T15:24:53.236Z,25.30
2018-05-06T15:27:21.441Z,24.50
2018-05-06T15:29:48.872Z,24.10
2018-05-06T15:32:17.077Z,23.00
2018-05-06T15:34:44.508Z,23.00
2018-05-06T15:37:12.717Z,22.30
2018-05-06T15:39:40.157Z,22.30
2018-05-06T15:42:07.628Z,22.70
2018-05-06T15:44:35.057Z,22.70
2018-05-06T15:47:02.495Z,22.80
2018-05-06T15:49:29.933Z,22.70
2018-05-06T15:51:57.373Z,23.00
2018-05-06T15:54:24.818Z,22.40
2018-05-06T15:56:52.258Z,22.00
2018-05-06T15:59:19.699Z,21.90
2018-05-06T16:01:59.025Z,21.90
2018-05-06T16:04:27.249Z,22.30
2018-05-06T16:06:54.684Z,22.30
2018-05-06T16:09:22.125Z,23.60
2018-05-06T16:11:49.561Z,23.50
2018-05-06T16:14:17.761Z,26.70
2018-05-06T16:16:45.192Z,26.70
2018-05-06T16:19:13.401Z,28.70
2018-05-06T16:21:40.830Z,28.70
2018-05-06T16:24:08.288Z,29.50
2018-05-06T16:26:35.811Z,29.80
2018-05-06T16:29:03.933Z,32.30
2018-05-06T16:31:31.365Z,31.40
2018-05-06T16:33:59.571Z,33.90
2018-05-06T16:36:27.009Z,33.80
2018-05-06T16:38:54.448Z,34.90
2018-05-06T16:41:22.644Z,35.10
2018-05-06T16:43:50.084Z,35.10
2018-05-06T16:46:18.279Z,35.60
2018-05-06T16:48:45.716Z,35.60
2018-05-06T16:51:13.913Z,35.50
2018-05-06T16:53:41.358Z,35.50
2018-05-06T16:56:08.788Z,36.30
2018-05-06T16:58:36.989Z,36.90
2018-05-06T17:01:04.428Z,36.90
2018-05-06T17:03:32.621Z,36.60
2018-05-06T17:06:00.056Z,36.60
2018-05-06T17:08:28.257Z,37.30
2018-05-06T17:10:55.697Z,37.30
2018-05-06T17:13:23.124Z,38.80
2018-05-06T17:15:50.560Z,37.80
2018-05-06T17:18:19.504Z,38.20
2018-05-06T17:20:46.940Z,38.10
2018-05-06T17:23:15.140Z,38.90
2018-05-06T17:25:42.581Z,38.90
2018-05-06T17:28:10.776Z,38.30
2018-05-06T17:30:38.218Z,38.10
2018-05-06T17:33:05.661Z,38.90
2018-05-06T17:35:33.866Z,37.60
2018-05-06T17:38:01.296Z,37.50
2018-05-06T17:40:29.517Z,38.30
2018-05-06T17:42:56.948Z,38.20
2018-05-06T17:45:24.389Z,39.20
2018-05-06T17:47:51.820Z,39.20
2018-05-06T17:50:20.040Z,40.10
2018-05-06T17:52:47.476Z,40.00
2018-05-06T17:55:14.908Z,38.60
2018-05-06T17:57:43.113Z,38.30
2018-05-06T18:00:10.548Z,38.30
2018-05-06T18:02:38.756Z,38.80
2018-05-06T18:05:06.188Z,38.80
2018-05-06T18:07:33.664Z,39.20
2018-05-06T18:10:01.835Z,38.80
2018-05-06T18:12:29.284Z,38.80
2018-05-06T18:14:56.712Z,39.10
2018-05-06T18:17:24.921Z,39.10
2018-05-06T18:19:52.358Z,39.10
2018-05-06T18:22:20.608Z,39.30
2018-05-06T18:24:48.040Z,39.20
2018-05-06T18:27:15.485Z,40.00
2018-05-06T18:29:42.921Z,39.60
2018-05-06T18:32:10.402Z,40.00
2018-05-06T18:34:37.793Z,39.40
2018-05-06T18:37:06.013Z,39.80
2018-05-06T18:39:33.448Z,39.30
2018-05-06T18:42:00.896Z,39.20
2018-05-06T18:44:29.091Z,40.60
2018-05-06T18:46:56.623Z,40.60
2018-05-06T18:49:23.969Z,40.90
2018-05-06T18:51:52.179Z,40.20
2018-05-06T18:54:19.608Z,40.10
2018-05-06T18:56:47.816Z,40.80
2018-05-06T18:59:15.260Z,40.70
2018-05-06T19:01:42.700Z,41.20
2018-05-06T19:04:10.900Z,41.00
2018-05-06T19:06:38.337Z,41.00
2018-05-06T19:09:05.763Z,40.70
2018-05-06T19:11:33.196Z,41.20
2018-05-06T19:14:00.641Z,41.10
2018-05-06T19:16:28.069Z,40.50
2018-05-06T19:18:55.516Z,41.10
2018-05-06T19:21:22.956Z,41.90
2018-05-06T19:23:51.177Z,43.30
2018-05-06T19:26:18.614Z,43.20
2018-05-06T19:28:46.053Z,43.40
2018-05-06T19:31:13.485Z,44.10
2018-05-06T19:33:40.940Z,43.50
2018-05-06T19:36:08.368Z,44.50
2018-05-06T19:38:35.808Z,44.40
2018-05-06T19:41:03.236Z,45.10
2018-05-06T19:43:30.672Z,45.50
2018-05-06T19:45:58.869Z,46.70
2018-05-06T19:48:26.313Z,46.70
2018-05-06T19:50:54.507Z,47.70
2018-05-06T19:53:21.963Z,47.70
2018-05-06T19:55:49.395Z,48.90
2018-05-06T19:58:17.609Z,49.70
2018-05-06T20:00:45.044Z,49.60
2018-05-06T20:03:12.485Z,50.00
2018-05-06T20:05:40.680Z,50.90
2018-05-06T20:08:08.124Z,50.90
2018-05-06T20:10:35.552Z,51.20
2018-05-06T20:13:02.993Z,50.70
2018-05-06T20:15:30.431Z,51.40
2018-05-06T20:17:57.873Z,51.00
2018-05-06T20:20:25.304Z,51.90
2018-05-06T20:22:52.739Z,51.30
2018-05-06T20:25:20.940Z,51.80
2018-05-06T20:27:48.378Z,52.30
2018-05-06T20:30:16.584Z,53.40
2018-05-06T20:32:44.016Z,53.40
2018-05-06T20:35:12.221Z,54.50
2018-05-06T20:37:39.696Z,55.10
2018-05-06T20:40:07.127Z,54.30
2018-05-06T20:42:34.565Z,55.10
2018-05-06T20:45:02.765Z,55.60
2018-05-06T20:47:30.195Z,55.60
2018-05-06T20:49:57.637Z,55.80
2018-05-06T20:52:25.841Z,56.00
2018-05-06T20:54:53.284Z,56.00
2018-05-06T20:57:20.716Z,57.10
2018-05-06T20:59:48.920Z,57.10
2018-05-06T21:02:16.356Z,57.00
2018-05-06T21:04:44.563Z,56.90
2018-05-06T21:07:11.997Z,56.90
2018-05-06T21:09:39.437Z,57.20
2018-05-06T21:12:07.628Z,57.90
2018-05-06T21:14:35.065Z,57.70
2018-05-06T21:17:03.282Z,58.70
2018-05-06T21:19:30.721Z,58.60
2018-05-06T21:21:58.147Z,58.50
2018-05-06T21:24:26.360Z,59.10
2018-05-06T21:26:53.780Z,59.00
2018-05-06T21:29:21.984Z,59.60
2018-05-06T21:31:49.425Z,59.60
2018-05-06T21:34:17.633Z,59.20
2018-05-06T21:36:45.128Z,59.10
2018-05-06T21:39:12.577Z,59.20
2018-05-06T21:41:40.696Z,60.50
2018-05-06T21:44:08.140Z,60.40
2018-05-06T21:46:35.568Z,61.30
2018-05-06T21:49:03.003Z,61.60
2018-05-06T21:51:30.441Z,62.70
2018-05-06T21:53:57.872Z,62.10
2018-05-06T21:56:25.307Z,63.40
2018-05-06T21:58:53.504Z,63.90
2018-05-06T22:01:20.951Z,63.90
2018-05-06T22:03:48.388Z,63.40
2018-05-06T22:06:17.264Z,64.50
2018-05-06T22:08:44.694Z,64.40
2018-05-06T22:11:12.128Z,65.70
2018-05-06T22:13:39.626Z,65.00
2018-05-06T22:16:07.769Z,64.80
2018-05-06T22:18:35.196Z,64.70
2018-05-06T22:21:02.657Z,65.40
2018-05-06T22:23:30.086Z,65.70
2018-05-06T22:25:58.288Z,67.40
2018-05-06T22:28:25.720Z,67.20
2018-05-06T22:30:53.930Z,68.50
2018-05-06T22:33:21.364Z,68.50
2018-05-06T22:35:49.565Z,68.20
2018-05-06T22:38:17.001Z,68.20
2018-05-06T22:40:44.444Z,69.50
2018-05-06T22:43:12.646Z,69.90
2018-05-06T22:45:40.088Z,69.90
2018-05-06T22:48:07.517Z,69.60
2018-05-06T22:50:35.736Z,69.80
2018-05-06T22:53:03.165Z,69.70
2018-05-06T22:55:31.368Z,69.80
2018-05-06T22:57:58.805Z,69.80
2018-05-06T23:00:26.243Z,70.00
2018-05-06T23:02:54.449Z,71.10
2018-05-06T23:05:21.888Z,71.10
2018-05-06T23:07:49.320Z,71.20
2018-05-06T23:10:17.525Z,72.90
2018-05-06T23:12:44.956Z,72.70
2018-05-06T23:15:13.172Z,73.00
2018-05-06T23:17:40.605Z,73.00
2018-05-06T23:20:08.047Z,74.40
2018-05-06T23:22:36.237Z,73.20
2018-05-06T23:25:03.683Z,73.20
2018-05-06T23:27:31.872Z,72.50
2018-05-06T23:29:59.316Z,72.50
2018-05-06T23:32:26.747Z,73.60
2018-05-06T23:34:54.948Z,74.10
2018-05-06T23:37:22.388Z,73.40
2018-05-06T23:39:50.584Z,73.20
2018-05-06T23:42:18.033Z,72.20
2018-05-06T23:44:45.460Z,70.80
2018-05-06T23:47:12.905Z,70.90
2018-05-06T23:49:40.422Z,71.60
2018-05-06T23:52:07.781Z,72.20
2018-05-06T23:54:35.214Z,70.90
2018-05-06T23:57:02.654Z,70.40
2018-05-06T23:59:30.859Z,71.00
